createdAt,value
2022-10-02T00:01:00.360Z,0.00
2022-10-02T00:01:59.591Z,0.00
2022-10-02T00:02:59.438Z,0.00
2022-10-02T00:03:59.456Z,0.00
2022-10-02T00:04:59.317Z,0.00
2022-10-02T00:05:59.261Z,0.00
2022-10-02T00:06:59.975Z,0.00
2022-10-02T00:07:59.128Z,0.00
2022-10-02T00:08:59.068Z,0.00
2022-10-02T00:09:58.992Z,0.00
2022-10-02T00:10:58.955Z,0.00
2022-10-02T00:11:58.868Z,0.00
2022-10-02T00:12:59.088Z,0.00
2022-10-02T00:13:58.740Z,0.00
2022-10-02T00:14:58.683Z,0.00
2022-10-02T00:15:58.689Z,0.00
2022-10-02T00:16:58.599Z,0.00
2022-10-02T00:17:58.508Z,0.00
2022-10-02T00:19:00.755Z,0.00
2022-10-02T00:19:58.352Z,0.00
2022-10-02T00:20:58.293Z,0.00
2022-10-02T00:21:58.223Z,0.00
2022-10-02T00:22:58.155Z,0.00
2022-10-02T00:23:58.093Z,0.00
2022-10-02T00:24:58.058Z,0.00
2022-10-02T00:25:57.966Z,0.00
2022-10-02T00:26:57.885Z,0.00
2022-10-02T00:27:57.902Z,0.00
2022-10-02T00:28:57.763Z,0.00
2022-10-02T00:29:57.716Z,0.00
2022-10-02T00:30:57.663Z,0.00
2022-10-02T00:31:57.646Z,0.00
2022-10-02T00:32:57.517Z,0.00
2022-10-02T00:33:57.462Z,0.00
2022-10-02T00:34:57.370Z,0.00
2022-10-02T00:35:57.319Z,0.00
2022-10-02T00:36:57.262Z,0.00
2022-10-02T00:37:57.189Z,0.00
2022-10-02T00:38:57.117Z,0.00
2022-10-02T00:39:57.057Z,0.00
2022-10-02T00:40:57.026Z,0.00
2022-10-02T00:41:56.911Z,0.00
2022-10-02T00:42:56.892Z,0.00
2022-10-02T00:43:56.801Z,0.00
2022-10-02T00:44:56.722Z,0.00
2022-10-02T00:45:56.713Z,0.00
2022-10-02T00:46:56.605Z,0.00
2022-10-02T00:47:56.539Z,0.00
2022-10-02T00:48:57.244Z,0.00
2022-10-02T00:49:56.413Z,0.00
2022-10-02T00:50:56.344Z,0.00
2022-10-02T00:51:56.276Z,0.00
2022-10-02T00:52:56.216Z,0.00
2022-10-02T00:53:56.148Z,0.00
2022-10-02T00:54:56.094Z,0.00
2022-10-02T00:55:56.006Z,0.00
2022-10-02T00:56:55.952Z,0.00
2022-10-02T00:57:55.887Z,0.00
2022-10-02T00:58:55.810Z,0.00
2022-10-02T00:59:55.745Z,0.00
2022-10-02T01:00:55.766Z,0.00
2022-10-02T01:01:55.640Z,0.00
2022-10-02T01:02:55.551Z,0.00
2022-10-02T01:03:55.498Z,0.00
2022-10-02T01:04:55.425Z,0.00
2022-10-02T01:05:55.358Z,0.00
2022-10-02T01:06:55.311Z,0.00
2022-10-02T01:07:55.244Z,0.00
2022-10-02T01:08:55.161Z,0.00
2022-10-02T01:09:55.111Z,0.00
2022-10-02T01:10:55.039Z,0.00
2022-10-02T01:11:54.967Z,0.00
2022-10-02T01:12:56.455Z,0.00
2022-10-02T01:13:54.842Z,0.00
2022-10-02T01:14:54.791Z,0.00
2022-10-02T01:15:54.747Z,0.00
2022-10-02T01:16:54.705Z,0.00
2022-10-02T01:17:54.585Z,0.00
2022-10-02T01:18:56.932Z,0.00
2022-10-02T01:19:54.465Z,0.00
2022-10-02T01:20:54.398Z,0.00
2022-10-02T01:21:54.337Z,0.00
2022-10-02T01:22:54.271Z,0.00
2022-10-02T01:23:54.209Z,0.00
2022-10-02T01:24:54.132Z,0.00
2022-10-02T01:25:54.075Z,0.00
2022-10-02T01:26:54.001Z,0.00
2022-10-02T01:27:53.960Z,0.00
2022-10-02T01:28:53.875Z,0.00
2022-10-02T01:29:53.812Z,0.00
2022-10-02T01:30:54.534Z,0.00
2022-10-02T01:31:53.745Z,0.00
2022-10-02T01:32:53.622Z,0.00
2022-10-02T01:33:53.541Z,0.00
2022-10-02T01:34:53.494Z,0.00
2022-10-02T01:35:53.427Z,0.00
2022-10-02T01:36:53.382Z,0.00
2022-10-02T01:37:53.288Z,0.00
2022-10-02T01:38:53.234Z,0.00
2022-10-02T01:39:53.163Z,0.00
2022-10-02T01:40:53.096Z,0.00
2022-10-02T01:41:53.034Z,0.00
2022-10-02T01:42:54.184Z,0.00
2022-10-02T01:43:52.903Z,0.00
2022-10-02T01:44:52.831Z,0.00
2022-10-02T01:45:52.958Z,0.00
2022-10-02T01:46:52.711Z,0.00
2022-10-02T01:47:52.655Z,0.00
2022-10-02T01:48:53.352Z,0.00
2022-10-02T01:49:52.514Z,0.00
2022-10-02T01:50:52.455Z,0.00
2022-10-02T01:51:52.374Z,0.00
2022-10-02T01:52:52.320Z,0.00
2022-10-02T01:53:52.252Z,0.00
2022-10-02T01:54:52.208Z,0.00
2022-10-02T01:55:52.118Z,0.00
2022-10-02T01:56:52.074Z,0.00
2022-10-02T01:57:51.994Z,0.00
2022-10-02T01:58:51.961Z,0.00
2022-10-02T01:59:51.861Z,0.00
2022-10-02T02:00:51.870Z,0.00
2022-10-02T02:01:51.779Z,0.00
2022-10-02T02:02:51.665Z,0.00
2022-10-02T02:03:51.611Z,0.00
2022-10-02T02:04:51.574Z,0.00
2022-10-02T02:05:51.495Z,0.00
2022-10-02T02:06:51.412Z,0.00
2022-10-02T02:07:51.345Z,0.00
2022-10-02T02:08:51.294Z,0.00
2022-10-02T02:09:51.214Z,0.00
2022-10-02T02:10:51.148Z,0.00
2022-10-02T02:11:51.082Z,0.00
2022-10-02T02:12:51.049Z,0.00
2022-10-02T02:13:50.960Z,0.00
2022-10-02T02:14:50.898Z,0.00
2022-10-02T02:15:50.848Z,0.00
2022-10-02T02:16:50.788Z,0.00
2022-10-02T02:17:50.700Z,0.00
2022-10-02T02:18:50.635Z,0.00
2022-10-02T02:19:50.595Z,0.00
2022-10-02T02:20:50.496Z,0.00
2022-10-02T02:21:50.432Z,0.00
2022-10-02T02:22:50.381Z,0.00
2022-10-02T02:23:50.306Z,0.00
2022-10-02T02:24:52.662Z,0.00
2022-10-02T02:25:50.201Z,0.00
2022-10-02T02:26:50.129Z,0.00
2022-10-02T02:27:50.075Z,0.00
2022-10-02T02:28:49.995Z,0.00
2022-10-02T02:29:49.921Z,0.00
2022-10-02T02:30:49.875Z,0.00
2022-10-02T02:31:49.832Z,0.00
2022-10-02T02:32:49.734Z,0.00
2022-10-02T02:33:49.656Z,0.00
2022-10-02T02:34:49.603Z,0.00
2022-10-02T02:35:49.535Z,0.00
2022-10-02T02:36:49.477Z,0.00
2022-10-02T02:37:49.413Z,0.00
2022-10-02T02:38:49.342Z,0.00
2022-10-02T02:39:49.279Z,0.00
2022-10-02T02:40:49.217Z,0.00
2022-10-02T02:41:49.154Z,0.00
2022-10-02T02:42:49.089Z,0.00
2022-10-02T02:43:49.011Z,0.00
2022-10-02T02:44:48.942Z,0.00
2022-10-02T02:45:48.912Z,0.00
2022-10-02T02:46:48.824Z,0.00
2022-10-02T02:47:48.760Z,0.00
2022-10-02T02:48:48.693Z,0.00
2022-10-02T02:49:48.616Z,0.00
2022-10-02T02:50:48.565Z,0.00
2022-10-02T02:51:48.491Z,0.00
2022-10-02T02:52:48.431Z,0.00
2022-10-02T02:53:48.374Z,0.00
2022-10-02T02:54:48.303Z,0.00
2022-10-02T02:55:48.237Z,0.00
2022-10-02T02:56:48.173Z,0.00
2022-10-02T02:57:48.101Z,0.00
2022-10-02T02:58:48.039Z,0.00
2022-10-02T02:59:47.999Z,0.00
2022-10-02T03:00:50.978Z,0.00
2022-10-02T03:01:47.928Z,0.00
2022-10-02T03:02:47.818Z,0.00
2022-10-02T03:03:47.724Z,0.00
2022-10-02T03:04:47.647Z,0.00
2022-10-02T03:05:47.577Z,0.00
2022-10-02T03:06:48.360Z,0.00
2022-10-02T03:07:47.472Z,0.00
2022-10-02T03:08:47.404Z,0.00
2022-10-02T03:09:47.333Z,0.00
2022-10-02T03:10:47.273Z,0.00
2022-10-02T03:11:47.187Z,0.00
2022-10-02T03:12:47.155Z,0.00
2022-10-02T03:13:47.060Z,0.00
2022-10-02T03:14:46.995Z,0.00
2022-10-02T03:15:46.993Z,0.00
2022-10-02T03:16:46.884Z,0.00
2022-10-02T03:17:46.896Z,0.00
2022-10-02T03:18:46.753Z,0.00
2022-10-02T03:19:46.676Z,0.00
2022-10-02T03:20:46.626Z,0.00
2022-10-02T03:21:46.559Z,0.00
2022-10-02T03:22:46.495Z,0.00
2022-10-02T03:23:46.420Z,0.00
2022-10-02T03:24:47.121Z,0.00
2022-10-02T03:25:46.292Z,0.00
2022-10-02T03:26:46.231Z,0.00
2022-10-02T03:27:46.215Z,0.00
2022-10-02T03:28:55.479Z,0.00
2022-10-02T03:29:46.028Z,0.00
2022-10-02T03:30:46.243Z,0.00
2022-10-02T03:31:45.963Z,0.00
2022-10-02T03:32:45.843Z,0.00
2022-10-02T03:33:45.770Z,0.00
2022-10-02T03:34:45.700Z,0.00
2022-10-02T03:35:45.637Z,0.00
2022-10-02T03:36:45.602Z,0.00
2022-10-02T03:37:45.526Z,0.00
2022-10-02T03:38:50.113Z,0.00
2022-10-02T03:39:45.388Z,0.00
2022-10-02T03:40:45.339Z,0.00
2022-10-02T03:41:45.271Z,0.00
2022-10-02T03:42:45.988Z,0.00
2022-10-02T03:43:45.136Z,0.00
2022-10-02T03:44:45.083Z,0.00
2022-10-02T03:45:51.251Z,0.00
2022-10-02T03:46:45.011Z,0.00
2022-10-02T03:47:44.897Z,0.00
2022-10-02T03:48:44.824Z,0.00
2022-10-02T03:49:44.737Z,0.00
2022-10-02T03:50:44.679Z,0.00
2022-10-02T03:51:44.595Z,0.00
2022-10-02T03:52:44.548Z,0.00
2022-10-02T03:53:44.475Z,0.00
2022-10-02T03:54:44.410Z,0.00
2022-10-02T03:55:44.348Z,0.00
2022-10-02T03:56:44.291Z,0.00
2022-10-02T03:57:44.209Z,0.00
2022-10-02T03:58:44.165Z,0.00
2022-10-02T03:59:44.089Z,0.00
2022-10-02T04:00:45.565Z,0.00
2022-10-02T04:01:48.288Z,0.00
2022-10-02T04:02:43.895Z,0.00
2022-10-02T04:03:43.885Z,0.00
2022-10-02T04:04:43.766Z,0.00
2022-10-02T04:05:43.706Z,0.00
2022-10-02T04:06:43.649Z,0.00
2022-10-02T04:07:43.576Z,0.00
2022-10-02T04:08:43.512Z,0.00
2022-10-02T04:09:43.435Z,0.00
2022-10-02T04:10:43.397Z,0.00
2022-10-02T04:11:43.311Z,0.00
2022-10-02T04:12:44.299Z,0.00
2022-10-02T04:13:43.188Z,0.00
2022-10-02T04:14:43.125Z,0.00
2022-10-02T04:15:43.154Z,0.00
2022-10-02T04:16:43.001Z,0.00
2022-10-02T04:17:42.926Z,0.00
2022-10-02T04:18:42.868Z,0.00
2022-10-02T04:19:42.789Z,0.00
2022-10-02T04:20:42.735Z,0.00
2022-10-02T04:21:42.652Z,0.00
2022-10-02T04:22:42.590Z,0.00
2022-10-02T04:23:42.534Z,0.00
2022-10-02T04:24:43.998Z,0.00
2022-10-02T04:25:42.406Z,0.00
2022-10-02T04:26:42.327Z,0.00
2022-10-02T04:27:42.291Z,0.00
2022-10-02T04:28:42.223Z,0.00
2022-10-02T04:29:42.142Z,0.00
2022-10-02T04:30:45.426Z,0.00
2022-10-02T04:31:42.133Z,0.00
2022-10-02T04:32:41.947Z,0.00
2022-10-02T04:33:41.902Z,0.00
2022-10-02T04:34:41.825Z,0.00
2022-10-02T04:35:41.765Z,0.00
2022-10-02T04:36:43.127Z,1.00
2022-10-02T04:37:41.631Z,0.00
2022-10-02T04:38:41.552Z,0.00
2022-10-02T04:39:45.822Z,0.00
2022-10-02T04:40:41.428Z,0.00
2022-10-02T04:41:41.375Z,0.00
2022-10-02T04:42:42.855Z,0.00
2022-10-02T04:43:41.229Z,0.00
2022-10-02T04:44:41.162Z,0.00
2022-10-02T04:45:41.257Z,0.00
2022-10-02T04:46:41.034Z,0.00
2022-10-02T04:47:40.975Z,0.00
2022-10-02T04:48:40.929Z,0.00
2022-10-02T04:49:40.842Z,0.00
2022-10-02T04:50:40.796Z,0.00
2022-10-02T04:51:40.778Z,0.00
2022-10-02T04:52:40.654Z,0.00
2022-10-02T04:53:40.610Z,0.00
2022-10-02T04:54:42.009Z,1.00
2022-10-02T04:55:40.491Z,0.00
2022-10-02T04:56:40.346Z,1.00
2022-10-02T04:57:40.327Z,0.00
2022-10-02T04:58:40.281Z,0.00
2022-10-02T04:59:40.216Z,0.00
2022-10-02T05:00:41.392Z,1.00
2022-10-02T05:01:40.129Z,0.00
2022-10-02T05:02:39.981Z,2.00
2022-10-02T05:03:39.883Z,1.00
2022-10-02T05:04:39.832Z,1.00
2022-10-02T05:05:39.764Z,7.00
2022-10-02T05:06:39.717Z,5.00
2022-10-02T05:07:39.640Z,3.00
2022-10-02T05:08:39.579Z,2.00
2022-10-02T05:09:39.493Z,5.00
2022-10-02T05:10:39.435Z,7.00
2022-10-02T05:11:39.377Z,6.00
2022-10-02T05:12:40.510Z,5.00
2022-10-02T05:13:39.240Z,6.00
2022-10-02T05:14:39.180Z,10.00
2022-10-02T05:15:39.121Z,15.00
2022-10-02T05:16:39.581Z,15.00
2022-10-02T05:17:38.986Z,21.00
2022-10-02T05:18:40.145Z,27.00
2022-10-02T05:19:38.852Z,27.00
2022-10-02T05:20:38.802Z,29.00
2022-10-02T05:21:38.737Z,37.00
2022-10-02T05:22:38.677Z,37.00
2022-10-02T05:23:38.593Z,38.00
2022-10-02T05:24:38.553Z,54.00
2022-10-02T05:25:38.475Z,57.00
2022-10-02T05:26:38.787Z,58.00
2022-10-02T05:27:38.331Z,65.00
2022-10-02T05:28:38.283Z,83.00
2022-10-02T05:29:38.225Z,89.00
2022-10-02T05:30:39.712Z,90.00
2022-10-02T05:31:38.098Z,102.00
2022-10-02T05:32:38.011Z,100.00
2022-10-02T05:33:37.946Z,103.00
2022-10-02T05:34:37.901Z,104.00
2022-10-02T05:35:37.812Z,136.00
2022-10-02T05:36:38.183Z,130.00
2022-10-02T05:37:37.689Z,157.00
2022-10-02T05:38:37.621Z,163.00
2022-10-02T05:39:37.572Z,168.00
2022-10-02T05:40:37.489Z,167.00
2022-10-02T05:41:37.436Z,172.00
2022-10-02T05:42:42.980Z,185.00
2022-10-02T05:43:37.296Z,204.00
2022-10-02T05:44:37.245Z,199.00
2022-10-02T05:45:37.187Z,195.00
2022-10-02T05:46:37.410Z,194.00
2022-10-02T05:47:37.043Z,215.00
2022-10-02T05:48:37.773Z,292.00
2022-10-02T05:49:36.915Z,288.00
2022-10-02T05:50:36.861Z,271.00
2022-10-02T05:51:36.797Z,171.00
2022-10-02T05:52:36.715Z,234.00
2022-10-02T05:53:36.669Z,255.00
2022-10-02T05:54:36.621Z,261.00
2022-10-02T05:55:36.531Z,254.00
2022-10-02T05:56:36.850Z,200.00
2022-10-02T05:57:36.411Z,273.00
2022-10-02T05:58:36.329Z,308.00
2022-10-02T05:59:36.288Z,461.00
2022-10-02T06:00:38.598Z,339.00
2022-10-02T06:01:36.141Z,257.00
2022-10-02T06:02:39.358Z,281.00
2022-10-02T06:03:36.010Z,232.00
2022-10-02T06:04:35.960Z,286.00
2022-10-02T06:05:35.891Z,391.00
2022-10-02T06:06:36.129Z,437.00
2022-10-02T06:07:35.752Z,383.00
2022-10-02T06:08:35.698Z,300.00
2022-10-02T06:09:35.625Z,263.00
2022-10-02T06:10:35.594Z,255.00
2022-10-02T06:11:35.495Z,230.00
2022-10-02T06:12:35.479Z,194.00
2022-10-02T06:13:35.367Z,159.00
2022-10-02T06:14:35.296Z,133.00
2022-10-02T06:15:35.244Z,138.00
2022-10-02T06:16:35.594Z,141.00
2022-10-02T06:17:35.106Z,144.00
2022-10-02T06:18:37.028Z,177.00
2022-10-02T06:19:34.994Z,180.00
2022-10-02T06:20:34.907Z,180.00
2022-10-02T06:21:34.862Z,191.00
2022-10-02T06:22:34.828Z,189.00
2022-10-02T06:23:34.721Z,192.00
2022-10-02T06:24:34.673Z,261.00
2022-10-02T06:25:34.592Z,232.00
2022-10-02T06:26:34.913Z,260.00
2022-10-02T06:27:34.463Z,242.00
2022-10-02T06:28:34.390Z,240.00
2022-10-02T06:29:34.351Z,278.00
2022-10-02T06:30:34.292Z,333.00
2022-10-02T06:31:34.227Z,376.00
2022-10-02T06:32:34.148Z,368.00
2022-10-02T06:33:34.084Z,390.00
2022-10-02T06:34:34.035Z,565.00
2022-10-02T06:35:33.962Z,601.00
2022-10-02T06:36:34.328Z,508.00
2022-10-02T06:37:33.830Z,469.00
2022-10-02T06:38:33.755Z,394.00
2022-10-02T06:39:33.700Z,347.00
2022-10-02T06:40:33.625Z,366.00
2022-10-02T06:41:33.577Z,398.00
2022-10-02T06:42:33.514Z,442.00
2022-10-02T06:43:33.440Z,445.00
2022-10-02T06:44:33.407Z,433.00
2022-10-02T06:45:33.324Z,605.00
2022-10-02T06:46:33.377Z,819.00
2022-10-02T06:47:33.185Z,792.00
2022-10-02T06:48:35.536Z,706.00
2022-10-02T06:49:33.069Z,599.00
2022-10-02T06:50:32.980Z,527.00
2022-10-02T06:51:32.925Z,453.00
2022-10-02T06:52:37.820Z,486.00
2022-10-02T06:53:32.788Z,509.00
2022-10-02T06:54:33.504Z,496.00
2022-10-02T06:55:32.665Z,448.00
2022-10-02T06:56:32.603Z,439.00
2022-10-02T06:57:32.565Z,489.00
2022-10-02T06:58:32.490Z,594.00
2022-10-02T06:59:32.398Z,656.00
2022-10-02T07:00:32.409Z,741.00
2022-10-02T07:01:32.288Z,736.00
2022-10-02T07:02:32.244Z,784.00
2022-10-02T07:03:32.157Z,766.00
2022-10-02T07:04:32.107Z,505.00
2022-10-02T07:05:32.027Z,590.00
2022-10-02T07:06:31.994Z,877.00
2022-10-02T07:07:31.885Z,581.00
2022-10-02T07:08:31.832Z,740.00
2022-10-02T07:09:31.753Z,957.00
2022-10-02T07:10:31.719Z,768.00
2022-10-02T07:11:31.643Z,566.00
2022-10-02T07:12:31.581Z,592.00
2022-10-02T07:13:31.496Z,665.00
2022-10-02T07:14:31.440Z,612.00
2022-10-02T07:15:31.388Z,576.00
2022-10-02T07:16:31.361Z,581.00
2022-10-02T07:17:31.245Z,480.00
2022-10-02T07:18:31.202Z,427.00
2022-10-02T07:19:31.113Z,521.00
2022-10-02T07:20:31.051Z,632.00
2022-10-02T07:21:30.997Z,518.00
2022-10-02T07:22:44.385Z,490.00
2022-10-02T07:23:30.880Z,440.00
2022-10-02T07:24:32.021Z,518.00
2022-10-02T07:25:30.728Z,536.00
2022-10-02T07:26:30.667Z,637.00
2022-10-02T07:27:30.610Z,808.00
2022-10-02T07:28:30.649Z,962.00
2022-10-02T07:29:30.479Z,987.00
2022-10-02T07:30:30.412Z,1061.00
2022-10-02T07:31:30.434Z,1020.00
2022-10-02T07:32:30.295Z,1096.00
2022-10-02T07:33:30.283Z,1075.00
2022-10-02T07:34:30.163Z,1204.00
2022-10-02T07:35:30.092Z,1017.00
2022-10-02T07:36:30.818Z,878.00
2022-10-02T07:37:29.950Z,996.00
2022-10-02T07:38:29.914Z,1123.00
2022-10-02T07:39:29.822Z,1206.00
2022-10-02T07:40:29.778Z,1164.00
2022-10-02T07:41:29.746Z,1373.00
2022-10-02T07:42:29.666Z,1494.00
2022-10-02T07:43:29.581Z,1478.00
2022-10-02T07:44:29.519Z,1437.00
2022-10-02T07:45:29.485Z,1438.00
2022-10-02T07:46:29.388Z,1395.00
2022-10-02T07:47:29.335Z,1447.00
2022-10-02T07:48:30.031Z,1538.00
2022-10-02T07:49:29.191Z,1359.00
2022-10-02T07:50:29.131Z,1371.00
2022-10-02T07:51:29.065Z,1478.00
2022-10-02T07:52:28.992Z,1429.00
2022-10-02T07:53:28.944Z,1802.00
2022-10-02T07:54:29.676Z,2061.00
2022-10-02T07:55:28.801Z,2191.00
2022-10-02T07:56:28.744Z,2172.00
2022-10-02T07:57:28.683Z,1567.00
2022-10-02T07:58:28.618Z,1089.00
2022-10-02T07:59:28.554Z,837.00
2022-10-02T08:00:28.545Z,796.00
2022-10-02T08:01:28.456Z,814.00
2022-10-02T08:02:28.397Z,1123.00
2022-10-02T08:03:28.350Z,1617.00
2022-10-02T08:04:28.231Z,2015.00
2022-10-02T08:05:28.171Z,1803.00
2022-10-02T08:06:28.883Z,1225.00
2022-10-02T08:07:28.040Z,1281.00
2022-10-02T08:08:27.967Z,2019.00
2022-10-02T08:09:27.919Z,2016.00
2022-10-02T08:10:27.840Z,2094.00
2022-10-02T08:11:27.770Z,1904.00
2022-10-02T08:12:29.283Z,2297.00
2022-10-02T08:13:27.659Z,2549.00
2022-10-02T08:14:27.582Z,2286.00
2022-10-02T08:15:27.517Z,2063.00
2022-10-02T08:16:27.498Z,1936.00
2022-10-02T08:17:27.407Z,1826.00
2022-10-02T08:18:34.778Z,2354.00
2022-10-02T08:19:27.273Z,2279.00
2022-10-02T08:20:29.368Z,2056.00
2022-10-02T08:21:27.134Z,1623.00
2022-10-02T08:22:27.091Z,1233.00
2022-10-02T08:23:27.023Z,1007.00
2022-10-02T08:24:26.972Z,991.00
2022-10-02T08:25:26.877Z,943.00
2022-10-02T08:26:27.656Z,990.00
2022-10-02T08:27:26.759Z,1016.00
2022-10-02T08:28:26.711Z,873.00
2022-10-02T08:29:26.617Z,847.00
2022-10-02T08:30:26.590Z,878.00
2022-10-02T08:31:26.617Z,819.00
2022-10-02T08:32:27.253Z,769.00
2022-10-02T08:33:26.399Z,740.00
2022-10-02T08:34:26.324Z,734.00
2022-10-02T08:35:26.239Z,614.00
2022-10-02T08:36:26.228Z,662.00
2022-10-02T08:37:26.123Z,844.00
2022-10-02T08:38:26.060Z,921.00
2022-10-02T08:39:26.010Z,945.00
2022-10-02T08:40:25.958Z,1028.00
2022-10-02T08:41:25.864Z,1107.00
2022-10-02T08:42:26.996Z,1164.00
2022-10-02T08:43:25.760Z,1274.00
2022-10-02T08:44:25.670Z,1301.00
2022-10-02T08:45:25.654Z,1365.00
2022-10-02T08:46:25.540Z,1271.00
2022-10-02T08:47:25.464Z,1364.00
2022-10-02T08:48:25.464Z,1585.00
2022-10-02T08:49:25.345Z,1704.00
2022-10-02T08:50:25.277Z,1602.00
2022-10-02T08:51:25.220Z,1696.00
2022-10-02T08:52:25.173Z,2257.00
2022-10-02T08:53:25.086Z,3077.00
2022-10-02T08:54:25.056Z,3205.00
2022-10-02T08:55:24.967Z,2993.00
2022-10-02T08:56:24.901Z,2942.00
2022-10-02T08:57:24.835Z,3067.00
2022-10-02T08:58:24.762Z,3662.00
2022-10-02T08:59:24.723Z,4002.00
2022-10-02T09:00:26.481Z,3851.00
2022-10-02T09:01:24.693Z,3653.00
2022-10-02T09:02:24.614Z,3449.00
2022-10-02T09:03:24.455Z,3659.00
2022-10-02T09:04:24.398Z,3664.00
2022-10-02T09:05:24.316Z,3325.00
2022-10-02T09:06:24.282Z,3257.00
2022-10-02T09:07:28.056Z,3064.00
2022-10-02T09:08:24.128Z,3317.00
2022-10-02T09:09:24.067Z,3334.00
2022-10-02T09:10:24.004Z,3294.00
2022-10-02T09:11:23.960Z,3891.00
2022-10-02T09:12:23.902Z,5195.00
2022-10-02T09:13:23.818Z,3787.00
2022-10-02T09:14:23.759Z,4616.00
2022-10-02T09:15:23.688Z,3720.00
2022-10-02T09:16:23.662Z,2796.00
2022-10-02T09:17:23.553Z,2598.00
2022-10-02T09:18:25.095Z,2294.00
2022-10-02T09:19:23.421Z,1967.00
2022-10-02T09:20:23.373Z,1839.00
2022-10-02T09:21:23.312Z,1749.00
2022-10-02T09:22:23.234Z,1609.00
2022-10-02T09:23:23.163Z,1527.00
2022-10-02T09:24:23.129Z,1496.00
2022-10-02T09:25:23.043Z,1380.00
2022-10-02T09:26:22.991Z,1233.00
2022-10-02T09:27:22.913Z,1253.00
2022-10-02T09:28:22.917Z,1125.00
2022-10-02T09:29:22.784Z,1172.00
2022-10-02T09:30:23.935Z,938.00
2022-10-02T09:31:22.722Z,863.00
2022-10-02T09:32:22.602Z,842.00
2022-10-02T09:33:22.547Z,782.00
2022-10-02T09:34:22.474Z,705.00
2022-10-02T09:35:22.397Z,702.00
2022-10-02T09:36:22.388Z,746.00
2022-10-02T09:37:22.270Z,849.00
2022-10-02T09:38:22.227Z,903.00
2022-10-02T09:39:22.203Z,880.00
2022-10-02T09:40:22.092Z,970.00
2022-10-02T09:41:22.038Z,946.00
2022-10-02T09:42:21.962Z,1018.00
2022-10-02T09:43:21.900Z,1134.00
2022-10-02T09:44:21.823Z,1156.00
2022-10-02T09:45:21.774Z,2029.00
2022-10-02T09:46:21.713Z,2054.00
2022-10-02T09:47:21.645Z,2411.00
2022-10-02T09:48:21.608Z,2768.00
2022-10-02T09:49:21.522Z,3074.00
2022-10-02T09:50:21.478Z,2818.00
2022-10-02T09:51:21.398Z,3233.00
2022-10-02T09:52:21.321Z,2972.00
2022-10-02T09:53:21.253Z,3132.00
2022-10-02T09:54:24.262Z,3097.00
2022-10-02T09:55:21.196Z,4601.00
2022-10-02T09:56:21.070Z,4803.00
2022-10-02T09:57:20.993Z,4213.00
2022-10-02T09:58:20.946Z,3460.00
2022-10-02T09:59:20.869Z,4031.00
2022-10-02T10:00:20.825Z,2746.00
2022-10-02T10:01:20.785Z,1561.00
2022-10-02T10:02:25.451Z,2536.00
2022-10-02T10:03:20.615Z,2402.00
2022-10-02T10:04:20.552Z,2725.00
2022-10-02T10:05:20.496Z,2258.00
2022-10-02T10:06:20.460Z,2198.00
2022-10-02T10:07:20.404Z,1962.00
2022-10-02T10:08:20.309Z,1802.00
2022-10-02T10:09:20.248Z,1848.00
2022-10-02T10:10:20.201Z,1696.00
2022-10-02T10:11:20.110Z,1510.00
2022-10-02T10:12:20.055Z,1953.00
2022-10-02T10:13:19.991Z,2410.00
2022-10-02T10:14:19.918Z,2483.00
2022-10-02T10:15:19.847Z,1916.00
2022-10-02T10:16:19.906Z,4733.00
2022-10-02T10:17:19.716Z,3191.00
2022-10-02T10:18:19.959Z,4210.00
2022-10-02T10:19:19.594Z,3166.00
2022-10-02T10:20:19.525Z,2276.00
2022-10-02T10:21:19.481Z,3470.00
2022-10-02T10:22:19.404Z,2989.00
2022-10-02T10:23:19.355Z,2508.00
2022-10-02T10:24:19.302Z,2509.00
2022-10-02T10:25:19.216Z,2801.00
2022-10-02T10:26:19.202Z,2742.00
2022-10-02T10:27:19.103Z,2424.00
2022-10-02T10:28:19.124Z,1745.00
2022-10-02T10:29:18.953Z,1640.00
2022-10-02T10:30:20.125Z,1993.00
2022-10-02T10:31:18.871Z,1626.00
2022-10-02T10:32:18.799Z,1330.00
2022-10-02T10:33:18.773Z,1310.00
2022-10-02T10:34:18.659Z,1662.00
2022-10-02T10:35:18.578Z,1916.00
2022-10-02T10:36:18.540Z,1676.00
2022-10-02T10:37:18.450Z,1819.00
2022-10-02T10:38:18.404Z,2084.00
2022-10-02T10:39:18.336Z,2310.00
2022-10-02T10:40:18.278Z,2207.00
2022-10-02T10:41:18.211Z,2687.00
2022-10-02T10:42:18.190Z,2944.00
2022-10-02T10:43:18.061Z,2558.00
2022-10-02T10:44:18.035Z,2294.00
2022-10-02T10:45:17.935Z,2188.00
2022-10-02T10:46:18.726Z,2407.00
2022-10-02T10:47:17.817Z,2468.00
2022-10-02T10:48:17.778Z,2545.00
2022-10-02T10:49:18.566Z,2738.00
2022-10-02T10:50:17.640Z,2917.00
2022-10-02T10:51:17.557Z,3027.00
2022-10-02T10:52:17.505Z,3101.00
2022-10-02T10:53:17.442Z,2886.00
2022-10-02T10:54:17.391Z,3097.00
2022-10-02T10:55:17.321Z,3004.00
2022-10-02T10:56:17.238Z,2344.00
2022-10-02T10:57:17.194Z,1844.00
2022-10-02T10:58:17.116Z,2287.00
2022-10-02T10:59:19.783Z,2456.00
2022-10-02T11:00:17.001Z,2429.00
2022-10-02T11:01:17.007Z,2274.00
2022-10-02T11:02:16.961Z,2489.00
2022-10-02T11:03:16.799Z,2121.00
2022-10-02T11:04:16.733Z,2267.00
2022-10-02T11:05:16.672Z,2674.00
2022-10-02T11:06:17.844Z,2849.00
2022-10-02T11:07:16.566Z,2723.00
2022-10-02T11:08:16.504Z,2838.00
2022-10-02T11:09:16.427Z,2701.00
2022-10-02T11:10:16.366Z,2247.00
2022-10-02T11:11:16.298Z,1710.00
2022-10-02T11:12:17.023Z,1580.00
2022-10-02T11:13:16.177Z,1586.00
2022-10-02T11:14:16.107Z,1515.00
2022-10-02T11:15:16.030Z,1825.00
2022-10-02T11:16:16.024Z,1994.00
2022-10-02T11:17:15.905Z,1943.00
2022-10-02T11:18:15.862Z,2115.00
2022-10-02T11:19:19.226Z,2083.00
2022-10-02T11:20:15.732Z,2115.00
2022-10-02T11:21:15.676Z,2251.00
2022-10-02T11:22:15.604Z,2457.00
2022-10-02T11:23:15.535Z,2536.00
2022-10-02T11:24:16.274Z,2276.00
2022-10-02T11:25:15.409Z,2443.00
2022-10-02T11:26:15.370Z,2595.00
2022-10-02T11:27:15.269Z,2827.00
2022-10-02T11:28:15.263Z,2768.00
2022-10-02T11:29:15.160Z,2394.00
2022-10-02T11:30:15.112Z,2656.00
2022-10-02T11:31:15.050Z,2899.00
2022-10-02T11:32:14.949Z,2841.00
2022-10-02T11:33:14.917Z,2740.00
2022-10-02T11:34:14.841Z,2303.00
2022-10-02T11:35:14.780Z,1909.00
2022-10-02T11:36:14.728Z,1950.00
2022-10-02T11:37:14.671Z,2707.00
2022-10-02T11:38:14.572Z,3122.00
2022-10-02T11:39:14.508Z,3026.00
2022-10-02T11:40:14.449Z,2813.00
2022-10-02T11:41:14.394Z,2323.00
2022-10-02T11:42:16.740Z,1876.00
2022-10-02T11:43:14.269Z,1711.00
2022-10-02T11:44:14.205Z,1310.00
2022-10-02T11:45:14.130Z,1971.00
2022-10-02T11:46:14.105Z,1978.00
2022-10-02T11:47:14.001Z,1547.00
2022-10-02T11:48:13.968Z,1040.00
2022-10-02T11:49:13.893Z,928.00
2022-10-02T11:50:13.826Z,1152.00
2022-10-02T11:51:13.766Z,1627.00
2022-10-02T11:52:13.689Z,2204.00
2022-10-02T11:53:13.620Z,2477.00
2022-10-02T11:54:17.012Z,3252.00
2022-10-02T11:55:13.505Z,2946.00
2022-10-02T11:56:13.430Z,2596.00
2022-10-02T11:57:13.371Z,2198.00
2022-10-02T11:58:13.321Z,1936.00
2022-10-02T11:59:13.246Z,1954.00
2022-10-02T12:00:13.993Z,1569.00
2022-10-02T12:01:13.135Z,1035.00
2022-10-02T12:02:16.371Z,1357.00
2022-10-02T12:03:13.047Z,1644.00
2022-10-02T12:04:12.925Z,1524.00
2022-10-02T12:05:12.859Z,1719.00
2022-10-02T12:06:12.822Z,1912.00
2022-10-02T12:07:12.739Z,2334.00
2022-10-02T12:08:12.670Z,2545.00
2022-10-02T12:09:12.612Z,2592.00
2022-10-02T12:10:12.550Z,2717.00
2022-10-02T12:11:12.500Z,2363.00
2022-10-02T12:12:14.739Z,2326.00
2022-10-02T12:13:12.371Z,2294.00
2022-10-02T12:14:12.304Z,2647.00
2022-10-02T12:15:12.252Z,2491.00
2022-10-02T12:16:12.232Z,2048.00
2022-10-02T12:17:12.118Z,1632.00
2022-10-02T12:18:12.080Z,1291.00
2022-10-02T12:19:11.978Z,1026.00
2022-10-02T12:20:11.929Z,761.00
2022-10-02T12:21:11.856Z,707.00
2022-10-02T12:22:11.804Z,876.00
2022-10-02T12:23:11.739Z,995.00
2022-10-02T12:24:11.684Z,872.00
2022-10-02T12:25:11.611Z,807.00
2022-10-02T12:26:11.536Z,716.00
2022-10-02T12:27:11.506Z,633.00
2022-10-02T12:28:11.480Z,631.00
2022-10-02T12:29:11.354Z,816.00
2022-10-02T12:30:11.313Z,720.00
2022-10-02T12:31:11.261Z,831.00
2022-10-02T12:32:11.251Z,1231.00
2022-10-02T12:33:11.098Z,1504.00
2022-10-02T12:34:11.038Z,1876.00
2022-10-02T12:35:10.973Z,2128.00
2022-10-02T12:36:11.964Z,2213.00
2022-10-02T12:37:10.856Z,2014.00
2022-10-02T12:38:10.767Z,1726.00
2022-10-02T12:39:10.724Z,1471.00
2022-10-02T12:40:10.660Z,1429.00